Whale Point, California Weather observations

Data are for observation ending at time listed.
 Day   Time    Ave.   Ave.  Ave.  Vector   Max.   Stn.    Total    Solar   Ave.  
  of    of     Air    Rel.  Wind   Wind    Wind   Baro.  Precip.   Rad.    Soil  
Year   Day     Temp.  Hum.  Speed  Dir.    Gust   Pres.                    Temp. 
2016   (PST)    F      %     mph   deg.    mph     mb.     in.     W/m2     F   
------------------------------------------------------------------------------
 242    0:40   54.8    91    2.5    47      4.3   996.3    0.00       0    73.7
 242    0:50   55.3    89    4.7    49      8.0   996.3    0.00       0    73.6
 242    1:00   55.8    88    2.7   102      6.9   996.3    0.00       0    73.5
 242    1:10   55.4    88    1.0    79      3.1   996.3    0.00       0    73.4
 242    1:20   55.2    89    2.7    23      5.1   996.3    0.00       0    73.3
 242    1:30   55.1    89    0.7   128      2.8   996.3    0.00       0    73.2
 242    1:40   54.8    89    0.2    27      1.5   995.9    0.00       0    73.0
 242    1:50   54.5    90    1.2   134      3.0   995.9    0.00       0    72.9
 242    2:00   53.8    91    1.1   160      2.5   996.3    0.00       0    72.8
 242    2:10   54.1    92    2.2    44      5.0   996.3    0.00       0    72.8
 242    2:20   54.2    91    3.8    29      6.4   996.3    0.00       0    72.7
 242    2:30   54.4    91    1.6    73      4.5   995.9    0.00       0    72.5
 242    2:40   54.6    90    1.1   134      2.5   995.9    0.00       0    72.5
 242    2:50   54.4    90    0.3   132      1.7   995.6    0.00       0    72.4
 242    3:00   54.0    90    1.7   142      3.3   995.9    0.00       0    72.3
 242    3:10   53.7    92    0.9    99      3.1   995.9    0.00       0    72.2
 242    3:20   53.9    92    0.7   118      2.0   995.9    0.00       0    72.1
 242    3:30   53.7    92    1.9   156      3.1   995.9    0.00       0    72.0
 242    3:40   53.7    92    1.8   154      3.2   995.9    0.00       0    71.9
 242    3:50   53.8    93    1.4   100      3.7   995.6    0.00       0    71.8
 242    4:00   53.7    92    1.1   107      3.4   995.3    0.00       0    71.7
 242    4:10   53.6    93    4.4   149      6.2   995.3    0.00       0    71.6
 242    4:20   53.8    93    2.3    78      6.4   995.3    0.00       0    71.5
 242    4:30   54.2    92    1.3    17      3.1   995.3    0.00       0    71.5
 242    4:40   54.5    90    1.7   151      3.4   995.6    0.00       0    71.4
 242    4:50   55.5    88    1.2    32      3.9   995.6    0.00       0    71.3
 242    5:00   55.7    86    2.1   103      6.2   995.6    0.00       0    71.2
 242    5:10   54.2    89    4.0   197      7.5   995.6    0.00       0    71.1
 242    5:20   53.7    93    2.6   154      6.3   995.9    0.00       0    71.0
 242    5:30   53.4    93    0.3   311      2.3   995.6    0.00       1    70.9
 242    5:40   53.5    94    2.7   156      7.1   995.6    0.00       4    70.8
 242    5:50   53.4    93    2.2   118      6.1   995.6    0.00       9    70.8
 242    6:00   53.7    93    2.4   141      5.8   995.9    0.00      14    70.7
 242    6:10   54.4    93    2.7   131      4.3   995.9    0.00      20    70.6
 242    6:20   54.9    91    0.8   157      3.8   995.9    0.00      27    70.5
 242    6:30   54.4    91    0.9   109      2.5   995.9    0.00      33    70.4
 242    6:40   53.9    92    1.5   153      5.0   995.9    0.00      38    70.4
 242    6:50   54.4    92    2.1   163      5.6   995.9    0.00      41    70.3
 242    7:00   54.4    91    2.3   189      5.7   995.9    0.00      45    70.2
 242    7:10   54.0    92    2.0   185      4.0   995.9    0.00      56    70.1
 242    7:20   53.7    94    2.1   265      4.2   995.9    0.00      54    70.1
 242    7:30   54.1    94    1.8   148      4.2   996.3    0.00     187    70.0
 242    7:40   55.9    91    1.6    10      4.2   996.3    0.00     379    69.9
 242    7:50   59.4    82    1.5   176      4.2   996.3    0.00     406    69.8
 242    8:00   58.9    81    2.1   189      4.9   996.3    0.00     426    69.7
 242    8:10   56.5    87    3.0   198      5.5   996.6    0.00     407    69.7
 242    8:20   56.3    89    3.0   183      5.6   996.6    0.00     485    69.6
 242    8:30   57.3    86    2.7   190      5.6   996.6    0.00     541    69.6
 242    8:40   56.8    87    3.2   203      7.0   996.6    0.00     571    69.5
 242    8:50   56.6    88    3.3   192      6.9   996.6    0.00     606    69.5
 242    9:00   57.3    86    3.5   187      6.6   996.3    0.00     629    69.5
 242    9:10   57.6    85    4.2   190      7.1   996.3    0.00     662    69.5
 242    9:20   58.3    84    1.4   218      4.7   996.3    0.00     690    69.4
 242    9:30   60.3    80    1.8   217      3.5   996.3    0.00     717    69.4
 242    9:40   60.2    79    3.3   204      6.0   996.3    0.00     740    69.3
 242    9:50   58.7    82    3.5   206      6.9   996.3    0.00     764    69.3
 242   10:00   61.0    78    2.8   192      5.4   996.3    0.00     786    69.3
 242   10:10   61.6    75    3.8   203      5.4   996.3    0.00     809    69.3
 242   10:20   60.6    77    4.3   185      6.4   996.6    0.00     828    69.3
 242   10:30   61.6    75    3.5   209      5.8   996.3    0.00     843    69.3
 242   10:40   61.0    76    3.6   201      7.2   996.3    0.00     861    69.3
 242   10:50   62.2    74    3.3   190      6.0   995.9    0.00     879    69.3
 242   11:00   62.1    74    4.3   201      8.3   995.9    0.00     895    69.3
 242   11:10   61.5    75    3.4   213      8.1   995.6    0.00     914    69.3
 242   11:20   60.9    76    5.1   208      9.4   995.6    0.00     900    69.4
 242   11:30   62.2    73    2.9   205      6.4   995.6    0.00     969    69.4
 242   11:40   65.2    68    1.3   327      3.1   995.3    0.00     758    69.4
 242   11:50   67.1    63    3.5   222      6.6   995.3    0.00     983    69.4
 242   12:00   65.2    67    4.5   205      7.7   995.3    0.00     962    69.5
 242   12:10   62.6    72    6.1   208      9.6   995.3    0.00     977    69.6
 242   12:20   62.3    73    3.4   214      7.5   995.3    0.00     977    69.7
 242   12:30   64.2    69    2.4   250      5.1   994.9    0.00     865    69.7
 242   12:40   67.8    63    2.6   342      7.8   994.9    0.00     780    69.8
 242   12:50   65.5    66    7.7   205     11.2   994.9    0.00     979    69.9
 242   13:00   63.4    70    4.5   215      7.7   994.9    0.00     939    70.1
 242   13:10   65.1    66    3.9   203      6.6   994.9    0.00     926    70.3
 242   13:20   66.6    64    4.3   207      7.8   994.9    0.00     911    70.4
 242   13:30   65.7    65    3.4   217      6.6   994.6    0.00     857    70.6
 242   13:40   65.4    66    2.7   222      5.9   994.6    0.00     640    70.8
 242   13:50   66.6    64    4.2   205      8.0   994.2    0.00     891    71.0
 242   14:00   66.4    64    4.5   216      8.3   994.2    0.00     862    71.2
 242   14:10   65.5    66    3.7   218      6.4   994.2    0.00     826    71.5
 242   14:20   66.4    64    3.8   212      7.1   993.9    0.00     800    71.7
 242   14:30   66.8    64    3.9   209      8.0   993.9    0.00     777    71.9
 242   14:40   66.1    65    4.9   213      8.8   993.9    0.00     752    72.2
 242   14:50   65.3    67    3.5   218      7.9   993.9    0.00     729    72.5
 242   15:00   66.7    64    4.0   215      6.9   993.9    0.00     703    72.7
 242   15:10   67.5    63    5.1   211      8.6   993.9    0.00     673    73.0
 242   15:20   66.4    65    4.9   225      8.6   993.9    0.00     644    73.2
 242   15:30   66.1    66    5.2   229      8.1   993.9    0.00     612    73.5
 242   15:40   66.7    64    5.0   223      8.0   993.6    0.00     582    73.7
 242   15:50   66.7    64    4.4   225      8.1   993.6    0.00     551    74.0
 242   16:00   65.8    66    4.6   220      7.4   993.6    0.00     515    74.2
 242   16:10   66.8    64    4.4   219      7.3   993.6    0.00     480    74.4
 242   16:20   67.2    63    3.8   219      8.0   993.6    0.00     440    74.6
 242   16:30   68.2    61    3.9   212      7.6   993.2    0.00     404    74.9
 242   16:40   66.3    65    3.6   214      6.4   993.2    0.00     363    75.1
 242   16:50   66.0    65    4.3   223      6.9   993.2    0.00     312    75.3
 242   17:00   65.4    67    3.1   226      5.6   992.9    0.00     238    75.4
 242   17:10   65.6    66    3.6   206      6.1   992.9    0.00     230    75.6
 242   17:20   65.1    67    3.3   217      5.9   992.9    0.00     226    75.8
 242   17:30   64.1    69    2.8   223      5.0   992.9    0.00     193    75.9
 242   17:40   64.1    70    1.8   222      4.3   992.9    0.00     155    76.1
 242   17:50   64.3    69    1.7   226      5.0   992.9    0.00     118    76.2
 242   18:00   63.0    72    2.1   219      4.2   992.6    0.00      95    76.4
 242   18:10   62.5    73    2.2   212      5.3   992.9    0.00      68    76.5
 242   18:20   62.0    74    0.5   334      1.9   992.6    0.00      43    76.6
 242   18:30   60.6    76    0.6   234      2.0   992.6    0.00       7    76.7
 242   18:40   59.4    79    1.5   204      3.9   992.9    0.00       3    76.8
 242   18:50   58.3    82    1.0   221      3.1   992.6    0.00       1    76.9
 242   19:00   57.8    83    0.7    18      1.9   992.6    0.00       0    77.0
 242   19:10   58.1    82    0.7   142      2.1   992.6    0.00       0    77.0
 242   19:20   58.1    81    1.4   189      6.2   992.6    0.00       0    77.0
 242   19:30   57.9    82    0.6   343      2.1   992.9    0.00       0    77.0
 242   19:40   57.2    83    1.6    11      3.9   992.9    0.00       0    77.0
 242   19:50   57.5    83    1.2   356      3.9   992.9    0.00       0    77.0
 242   20:00   58.5    80    0.8   160      2.8   992.9    0.00       0    76.9
 242   20:10   58.0    81    1.4    16      3.9   992.9    0.00       0    76.9
 242   20:20   59.1    78    1.2   114      3.9   992.9    0.00       0    76.8
 242   20:30   60.1    74    0.8    35      1.8   992.9    0.00       0    76.8
 242   20:40   61.9    66    0.8    24      3.1   992.9    0.00       0    76.7
 242   20:50   63.2    64    1.7   175      4.5   992.9    0.00       0    76.6
 242   21:00   61.3    69    1.2   135      3.1   992.9    0.00       0    76.6
 242   21:10   59.7    76    2.8   180      5.9   992.9    0.00       0    76.5
 242   21:20   59.0    78    1.0   189      3.9   992.9    0.00       0    76.4
 242   21:30   58.0    81    1.6   131      5.6   992.9    0.00       0    76.3
 242   21:40   58.5    79    1.7   341      3.9   992.9    0.00       0    76.2
 242   21:50   61.1    69    3.8   106      8.7   992.9    0.00       0    76.1
 242   22:00   65.0    59    2.1    56      7.5   992.9    0.00       0    76.0
 242   22:10   62.9    64    1.6    10      3.4   993.2    0.00       0    75.9
 242   22:20   62.4    63    1.0   160      2.0   993.2    0.00       0    75.8
 242   22:30   59.6    74    0.7    24      2.7   993.2    0.00       0    75.7
 242   22:40   58.3    78    1.1    18      3.4   993.2    0.00       0    75.6
 242   22:50   58.5    78    0.5    58      2.8   992.9    0.00       0    75.5
 242   23:00   59.3    75    0.6   122      2.0   993.2    0.00       0    75.4
 242   23:10   59.8    72    2.4    14      5.0   993.2    0.00       0    75.3
 242   23:20   61.6    66    1.9   140      3.7   992.9    0.00       0    75.2
 242   23:30   62.4    65    1.5   169      3.6   992.9    0.00       0    75.1
 242   23:40   63.2    61    0.7   143      2.6   992.9    0.00       0    75.0
 242   23:50   63.3    62    0.5   211      1.8   992.9    0.00       0    74.9
 243    0:00   63.7    59    2.1    94      5.6   992.9    0.00       0    74.8
 243    0:10   70.3    36    4.3    60      7.7   992.6    0.00       0    74.7
 243    0:20   69.3    45    4.1   166     10.7   992.9    0.00       0    74.5
 243    0:30   58.7    77    3.8   170      9.8   993.2    0.00       0    74.4

Return to Whale Point graphs page.


Western Regional Climate Center,wrcc@dri.edu